• Join FlightAware (Why Join?)
  • Login
  • US Flag 
03:10PM EDT


 

Airport Tracker/Info


-or-


 

Live Flight TrackerFlight Track Log ✈ SWA1025 ✈ 29-Jun-2013 ✈ KLGA - KHOU

Flight Track Log - Related Links

Times and Time Zones

All times are in EDT time to prevent confusion due to time zone crossing. See the SWA1025 flight status page for this flight to view local times or setup timezone preferences in your user account.

Time Position Orientation Groundspeed Altitude Reporting Facility
EDT Latitude Longitude Course Direction KTS MPH feet Rate Location/Type
12:32PM 40.8167 -73.9167 323° Northwest 193 222 2,500  Level New York TRACON
12:33PM 40.8667 -73.9667 323° Northwest 226 260 5,700 2,820 Climbing New York TRACON
12:34PM 40.9000 -74.0167 311° West 249 287 8,200 2,940 Climbing New York TRACON
12:35PM 40.8833 -74.1167 258° West 252 290 11,600 3,180 Climbing New York TRACON
12:36PM 40.8500 -74.2000 242° Southwest 278 320 14,600 1,800 Climbing New York TRACON
12:37PM 40.8167 -74.3000 246° West 285 328 15,200 840 Climbing New York TRACON
12:38PM 40.7833 -74.3833 242° Southwest 291 335 16,300 900 Climbing New York TRACON
12:39PM 40.7500 -74.5000 249° West 338 389 17,000 300 Climbing New York TRACON
12:40PM 40.7000 -74.6167 241° Southwest 347 399 17,000  Level New York TRACON
12:41PM 40.6667 -74.7167 246° West 346 398 17,000  Level New York TRACON
12:42PM 40.6222 -74.8531 247° West 348 400 17,000 1,140 Level New York Center
12:44PM 40.5267 -75.0794 241° Southwest 353 406 20,900 2,100 Climbing New York Center
12:45PM 40.4622 -75.1872 232° Southwest 365 420 23,500 2,580 Climbing New York Center
12:46PM 40.3981 -75.2894 231° Southwest 376 433 26,200 2,100 Climbing New York Center
12:47PM 40.3314 -75.3914 229° Southwest 376 433 27,800 1,440 Climbing New York Center
12:48PM 40.2669 -75.4958 231° Southwest 376 433 29,100 1,500 Climbing New York Center
12:49PM 40.1997 -75.6081 232° Southwest 386 444 30,800 1,740 Climbing New York Center
12:50PM 40.1428 -75.7264 238° Southwest 391 450 32,700 1,740 Climbing New York Center
12:51PM 40.0858 -75.8417 237° Southwest 386 444 34,400 1,560 Climbing New York Center
12:52PM 40.0289 -75.9514 236° Southwest 381 438 35,900 1,020 Climbing New York Center
12:53PM 39.9719 -76.0611 236° Southwest 375 432 36,500 780 Climbing New York Center
12:54PM 39.9167 -76.1758 238° Southwest 375 432 37,500 720 Climbing New York Center
12:55PM 39.8539 -76.2739 230° Southwest 386 444 38,000 180 Climbing New York Center
12:56PM 39.7778 -76.3906 230° Southwest 365 420 38,000  Level Washington Center
12:57PM 39.7081 -76.4950 229° Southwest 376 433 38,000  Level Washington Center
12:58PM 39.6303 -76.6100 229° Southwest 385 443 38,000  Level Washington Center
12:59PM 39.5606 -76.7114 228° Southwest 385 443 38,000  Level Washington Center
01:00PM 39.4908 -76.8150 229° Southwest 385 443 38,000  Level Washington Center
01:01PM 39.4208 -76.9186 229° Southwest 385 443 38,000  Level Washington Center
01:02PM 39.3531 -77.0222 230° Southwest 385 443 38,000  Level Washington Center
01:03PM 39.2831 -77.1253 229° Southwest 385 443 38,000  Level Washington Center
01:04PM 39.2128 -77.2283 229° Southwest 385 443 38,000  Level Washington Center
01:05PM 39.1447 -77.3311 230° Southwest 385 443 38,000  Level Washington Center
01:06PM 39.0764 -77.4311 229° Southwest 385 443 38,000  Level Washington Center
01:07PM 39.0061 -77.5336 229° Southwest 385 443 38,000  Level Washington Center
01:08PM 38.9336 -77.6383 228° Southwest 385 443 38,000  Level Washington Center
01:09PM 38.8714 -77.7272 228° Southwest 385 443 38,000  Level Washington Center
01:10PM 38.7986 -77.8344 229° Southwest 390 449 38,000  Level Washington Center
01:11PM 38.7281 -77.9361 228° Southwest 390 449 38,000  Level Washington Center
01:12PM 38.6592 -78.0350 228° Southwest 383 441 38,000  Level Washington Center
01:13PM 38.5906 -78.1336 228° Southwest 383 441 38,000  Level Washington Center
01:14PM 38.5194 -78.2347 228° Southwest 383 441 38,000  Level Washington Center
01:15PM 38.4506 -78.3356 229° Southwest 383 441 38,000  Level Washington Center
01:16PM 38.3814 -78.4336 228° Southwest 383 441 38,000  Level Washington Center
01:17PM 38.3103 -78.5342 228° Southwest 383 441 38,000  Level Washington Center
01:18PM 38.2431 -78.6347 230° Southwest 383 441 38,000  Level Washington Center
01:19PM 38.1717 -78.7347 228° Southwest 383 441 38,000  Level Washington Center
01:20PM 38.1003 -78.8347 228° Southwest 383 441 38,000  Level Washington Center
01:21PM 38.0200 -78.9472 228° Southwest 383 441 38,000  Level Washington Center
01:22PM 37.9461 -79.0492 227° Southwest 388 447 38,000  Level Washington Center
01:23PM 37.8806 -79.1567 232° Southwest 388 447 38,000  Level Washington Center
01:24PM 37.8250 -79.2697 238° Southwest 388 447 38,000  Level Washington Center
01:25PM 37.7736 -79.3750 238° Southwest 388 447 38,000  Level Washington Center
01:26PM 37.7092 -79.5006 237° Southwest 388 447 38,000  Level Washington Center
01:27PM 37.6578 -79.6028 238° Southwest 388 447 38,000  Level Washington Center
01:28PM 37.5953 -79.7253 237° Southwest 383 441 38,000  Level Washington Center
01:30PM 37.4731 -79.9653 237° Southwest 405 466 38,000  Level Atlanta Center
01:31PM 37.4144 -80.0781 237° Southwest 395 455 38,000  Level Atlanta Center
01:32PM 37.3553 -80.1906 237° Southwest 395 455 38,000  Level Atlanta Center
01:33PM 37.2944 -80.3111 238° Southwest 395 455 38,000  Level Atlanta Center
01:34PM 37.2333 -80.4258 236° Southwest 395 455 38,000  Level Atlanta Center
01:35PM 37.1761 -80.5381 237° Southwest 395 455 38,000  Level Atlanta Center
01:36PM 37.1208 -80.6497 238° Southwest 395 455 38,000  Level Atlanta Center
01:37PM 37.0717 -80.7533 239° Southwest 395 455 38,000  Level Atlanta Center
01:38PM 37.0267 -80.8747 245° Southwest 395 455 38,000  Level Atlanta Center
01:39PM 36.9839 -80.9961 246° West 390 449 38,000  Level Atlanta Center
01:40PM 36.9372 -81.1303 247° West 390 449 38,000  Level Atlanta Center
01:41PM 36.8919 -81.2514 245° Southwest 384 442 38,000  Level Atlanta Center
01:42PM 36.8508 -81.3694 247° West 384 442 38,000  Level Atlanta Center
01:43PM 36.8075 -81.4875 245° Southwest 384 442 38,000  Level Atlanta Center
01:44PM 36.7683 -81.6056 248° West 378 435 38,000  Level Atlanta Center
01:45PM 36.7247 -81.7258 246° West 378 435 38,000  Level Atlanta Center
01:46PM 36.6808 -81.8436 245° Southwest 378 435 38,000  Level Atlanta Center
01:47PM 36.6372 -81.9639 246° West 378 435 38,000  Level Atlanta Center
01:48PM 36.5933 -82.0814 245° Southwest 378 435 38,000  Level Atlanta Center
01:49PM 36.5472 -82.2014 244° Southwest 378 435 38,000  Level Atlanta Center
01:50PM 36.5031 -82.3211 245° Southwest 378 435 38,000  Level Atlanta Center
01:51PM 36.4628 -82.4253 244° Southwest 378 435 38,000  Level Atlanta Center
01:52PM 36.4183 -82.5450 245° Southwest 378 435 38,000  Level Atlanta Center
01:53PM 36.3758 -82.6617 246° West 378 435 38,000  Level Atlanta Center
01:54PM 36.3292 -82.7811 244° Southwest 378 435 38,000  Level Atlanta Center
01:55PM 36.2844 -82.9003 245° Southwest 378 435 38,000  Level Atlanta Center
01:56PM 36.2397 -83.0167 245° Southwest 378 435 38,000  Level Atlanta Center
01:57PM 36.1947 -83.1383 245° Southwest 378 435 38,000  Level Atlanta Center
01:58PM 36.1497 -83.2544 244° Southwest 378 435 38,000  Level Atlanta Center
01:59PM 36.1044 -83.3731 245° Southwest 383 441 38,000  Level Atlanta Center
02:00PM 36.0611 -83.4917 246° West 383 441 38,000  Level Atlanta Center
02:01PM 36.0097 -83.6228 244° Southwest 383 441 38,000  Level Atlanta Center
02:02PM 35.9642 -83.7411 245° Southwest 383 441 38,000  Level Atlanta Center
02:03PM 35.9183 -83.8619 245° Southwest 383 441 38,000  Level Atlanta Center
02:04PM 35.8539 -83.9644 232° Southwest 383 441 38,000  Level Atlanta Center
02:05PM 35.7831 -84.0644 229° Southwest 388 447 38,000  Level Atlanta Center
02:06PM 35.7119 -84.1642 229° Southwest 388 447 38,000  Level Atlanta Center
02:07PM 35.6492 -84.2533 229° Southwest 388 447 38,000  Level Atlanta Center
02:08PM 35.5761 -84.3503 227° Southwest 388 447 38,000  Level Atlanta Center
02:09PM 35.5047 -84.4494 229° Southwest 388 447 38,000  Level Atlanta Center
02:10PM 35.4314 -84.5486 228° Southwest 388 447 38,000  Level Atlanta Center
02:11PM 35.3622 -84.6500 230° Southwest 388 447 38,000  Level Atlanta Center
02:12PM 35.2886 -84.7486 228° Southwest 388 447 38,000  Level Atlanta Center
02:13PM 35.2150 -84.8497 228° Southwest 388 447 38,000  Level Atlanta Center
02:14PM 35.1453 -84.9456 228° Southwest 388 447 38,000  Level Atlanta Center
02:15PM 35.0736 -85.0464 229° Southwest 388 447 38,000  Level Atlanta Center
02:16PM 34.9997 -85.1417 227° Southwest 388 447 38,000  Level Atlanta Center
02:17PM 34.9300 -85.2372 228° Southwest 388 447 38,000  Level Atlanta Center
02:18PM 34.8581 -85.3347 228° Southwest 388 447 38,000  Level Atlanta Center
02:19PM 34.7861 -85.4297 227° Southwest 388 447 38,000  Level Atlanta Center
02:20PM 34.7139 -85.5297 229° Southwest 388 447 38,000  Level Atlanta Center
02:21PM 34.6419 -85.6244 227° Southwest 388 447 38,000  Level Atlanta Center
02:22PM 34.5697 -85.7214 228° Southwest 388 447 38,000  Level Atlanta Center
02:23PM 34.4931 -85.8206 227° Southwest 388 447 38,000  Level Atlanta Center
02:24PM 34.4228 -85.9147 228° Southwest 382 440 38,000  Level Atlanta Center
02:25PM 34.3611 -85.9989 228° Southwest 382 440 38,000  Level Atlanta Center
02:26PM 34.2864 -86.0953 227° Southwest 382 440 38,000  Level Atlanta Center
02:27PM 34.2158 -86.1892 228° Southwest 382 440 38,000  Level Atlanta Center
02:28PM 34.1411 -86.2850 227° Southwest 382 440 38,000  Level Atlanta Center
02:29PM 34.0683 -86.3836 228° Southwest 387 445 38,000  Level Atlanta Center
02:30PM 33.9933 -86.4767 226° Southwest 387 445 38,000  Level Atlanta Center
02:31PM 33.9206 -86.5722 227° Southwest 387 445 38,000  Level Atlanta Center
02:32PM 33.8456 -86.6675 227° Southwest 382 440 38,000  Level Atlanta Center
02:33PM 33.7747 -86.7603 227° Southwest 387 445 38,000  Level Atlanta Center
02:34PM 33.7014 -86.8578 228° Southwest 387 445 38,000  Level Atlanta Center
02:35PM 33.6406 -86.9631 235° Southwest 387 445 38,000  Level Atlanta Center
02:36PM 33.5961 -87.0789 245° Southwest 387 445 38,000  Level Atlanta Center
02:37PM 33.5492 -87.1944 244° Southwest 387 445 38,000  Level Atlanta Center
02:39PM 33.4656 -87.4039 244° Southwest 412 474 38,000  Level Memphis Center
02:40PM 33.4181 -87.5225 244° Southwest 401 461 38,000  Level Memphis Center
02:41PM 33.3706 -87.6383 244° Southwest 396 456 38,000  Level Memphis Center
02:42PM 33.3231 -87.7567 244° Southwest 391 450 38,000  Level Memphis Center
02:43PM 33.2753 -87.8725 244° Southwest 391 450 38,000  Level Memphis Center
02:44PM 33.2275 -87.9906 244° Southwest 391 450 38,000  Level Memphis Center
02:45PM 33.1797 -88.1086 244° Southwest 391 450 38,000  Level Memphis Center
02:46PM 33.1336 -88.2214 244° Southwest 386 444 38,000  Level Memphis Center
02:47PM 33.0917 -88.3289 245° Southwest 391 450 38,000  Level Memphis Center
02:48PM 33.0453 -88.4414 244° Southwest 391 450 38,000  Level Memphis Center
02:49PM 32.9969 -88.5589 244° Southwest 391 450 38,000  Level Memphis Center
02:50PM 32.9486 -88.6739 243° Southwest 391 450 38,000  Level Memphis Center
02:51PM 32.8981 -88.7936 243° Southwest 391 450 38,000  Level Memphis Center
02:52PM 32.8492 -88.9081 243° Southwest 391 450 38,000  Level Memphis Center
02:53PM 32.8006 -89.0250 244° Southwest 391 450 38,000  Level Memphis Center
02:54PM 32.7514 -89.1419 243° Southwest 391 450 38,000  Level Memphis Center
02:55PM 32.7006 -89.2586 243° Southwest 391 450 38,000  Level Memphis Center
02:56PM 32.6514 -89.3753 243° Southwest 391 450 38,000  Level Memphis Center
02:57PM 32.6000 -89.4917 242° Southwest 391 450 38,000  Level Memphis Center
02:58PM 32.5486 -89.6106 243° Southwest 391 450 38,000  Level Memphis Center
02:59PM 32.4969 -89.7317 243° Southwest 401 461 38,000  Level Memphis Center
03:00PM 32.4433 -89.8503 242° Southwest 406 467 38,000  Level Memphis Center
03:01PM 32.3958 -89.9661 244° Southwest 406 467 38,000  Level Memphis Center
03:02PM 32.3417 -90.0869 242° Southwest 406 467 38,000  Level Memphis Center
03:03PM 32.2919 -90.2050 244° Southwest 406 467 38,000  Level Memphis Center
03:04PM 32.2419 -90.3206 243° Southwest 406 467 38,000  Level Memphis Center
03:05PM 32.1897 -90.4383 242° Southwest 406 467 38,000  Level Memphis Center
03:06PM 32.1372 -90.5586 243° Southwest 406 467 38,000  Level Memphis Center
03:07PM 32.1114 -90.6169 242° Southwest 404 465 38,000  Level Houston Center
03:08PM 32.0481 -90.7575 242° Southwest 405 466 38,000  Level Houston Center
03:09PM 32.0019 -90.8653 243° Southwest 405 466 38,000  Level Houston Center
03:10PM 31.9489 -90.9825 242° Southwest 406 467 38,000  Level Houston Center
03:11PM 31.8850 -91.1228 242° Southwest 406 467 38,000  Level Houston Center
03:12PM 31.8336 -91.2400 243° Southwest 403 464 38,000  Level Houston Center
03:13PM 31.7806 -91.3581 242° Southwest 407 468 38,000  Level Houston Center
03:14PM 31.7267 -91.4764 242° Southwest 409 471 38,000  Level Houston Center
03:15PM 31.6722 -91.5953 242° Southwest 412 474 38,000  Level Houston Center
03:16PM 31.6014 -91.7014 232° Southwest 410 472 38,000  Level Houston Center
03:17PM 31.5314 -91.8078 232° Southwest 411 473 38,000  Level Houston Center
03:18PM 31.4461 -91.9367 232° Southwest 415 478 38,000  Level Houston Center
03:19PM 31.3844 -92.0328 233° Southwest 414 476 38,000  Level Houston Center
03:20PM 31.3292 -92.1497 241° Southwest 411 473 38,000  Level Houston Center
03:21PM 31.2881 -92.2750 249° West 414 476 38,000  Level Houston Center
03:22PM 31.2353 -92.4267 248° West 421 484 38,000  Level Houston Center
03:23PM 31.1925 -92.5522 248° West 419 482 38,000  Level Houston Center
03:24PM 31.1486 -92.6775 248° West 418 481 38,000  Level Houston Center
03:25PM 31.1061 -92.8019 248° West 415 478 38,000  Level Houston Center
03:26PM 31.0628 -92.9281 248° West 419 482 38,000  Level Houston Center
03:27PM 31.0183 -93.0544 248° West 422 486 38,000  Level Houston Center
03:28PM 30.9664 -93.2050 248° West 420 483 38,000  Level Houston Center
03:29PM 30.9225 -93.3311 248° West 421 484 38,000  Level Houston Center
03:30PM 30.8778 -93.4583 248° West 425 489 38,000  Level Houston Center
03:31PM 30.8333 -93.5856 248° West 428 493 38,000  Level Houston Center
03:32PM 30.7886 -93.7114 248° West 426 490 38,000 -1,200 Level Houston Center
03:33PM 30.7428 -93.8381 247° West 428 493 35,600 -3,060 Descending Houston Center
03:34PM 30.6856 -93.9953 247° West 444 511 31,800 -3,480 Descending Houston Center
03:35PM 30.6381 -94.1297 248° West 453 521 28,500 -3,180 Descending Houston Center
03:36PM 30.5875 -94.2669 247° West 463 533 25,300 -3,300 Descending Houston Center
03:38PM 30.5233 -94.4431 247° West 462 532 21,000 -3,240 Descending Houston Center
03:38PM 30.4783 -94.5428 242° Southwest 449 517 18,700 -3,000 Descending Houston Center
03:39PM 30.4044 -94.6592 234° Southwest 425 489 15,600 -2,640 Descending Houston Center
03:40PM 30.3383 -94.7617 233° Southwest 403 464 13,300 -1,260 Descending Houston Center
03:42PM 30.2753 -94.8581 233° Southwest 381 438 13,000 -540 Descending Houston Center
03:43PM 30.2158 -94.9508 233° Southwest 364 419 12,200 -1,080 Descending Houston Center
03:44PM 30.1561 -95.0425 233° Southwest 359 413 10,900 -1,080 Descending Houston Center
03:45PM 30.0472 -95.1086 208° Southwest 357 411 10,000 -840 Descending Houston Center
03:46PM 29.9653 -95.1442 201° Southwest 332 382 9,200 -1,200 Descending Houston Center
03:47PM 29.8733 -95.1831 200° South 321 369 7,600 -1,500 Descending Houston Center
03:48PM 29.7986 -95.2158 201° Southwest 321 369 6,200 -840 Descending Houston Center
03:49PM 29.7231 -95.2347 192° South 290 334 6,000 -360 Descending Houston Center
03:50PM 29.6711 -95.1808 138° Southeast 255 293 5,500 -960 Descending Houston Center
03:51PM 29.6172 -95.1200 136° Southeast 256 295 4,100 -1,020 Descending Houston Center
03:52PM 29.5631 -95.0761 145° Southeast 257 296 3,500 -960 Descending Houston Center
03:53PM 29.5325 -95.1361 240° Southwest 248 285 2,200 -780 Descending Houston Center
03:54PM 29.5675 -95.1864 309° West 218 251 2,000 -600 Descending Houston Center
03:55PM 29.6006 -95.2264 314° West 189 217 1,000 -780 Descending Houston Center
03:56PM 29.6272 -95.2586 314° West 161 185 400 -480 Descending Houston Center
03:57PM 29.6606 -95.2978 314° West 155 178 100 -300 Descending Houston Center